createdAt,value
2018-02-19T00:01:54.353Z,95581.13
2018-02-19T00:04:21.900Z,95584.08
2018-02-19T00:06:49.457Z,95583.46
2018-02-19T00:09:17.046Z,95578.22
2018-02-19T00:11:44.581Z,95570.55
2018-02-19T00:14:12.144Z,95580.52
2018-02-19T00:16:39.674Z,95578.00
2018-02-19T00:19:07.443Z,95572.09
2018-02-19T00:21:34.950Z,95578.59
2018-02-19T00:24:02.485Z,95570.98
2018-02-19T00:26:30.048Z,95579.39
2018-02-19T00:28:57.574Z,95565.09
2018-02-19T00:31:25.140Z,95571.97
2018-02-19T00:33:52.669Z,95562.71
2018-02-19T00:36:20.191Z,95565.13
2018-02-19T00:38:47.994Z,95574.46
2018-02-19T00:41:15.498Z,95574.06
2018-02-19T00:43:43.049Z,95580.02
2018-02-19T00:46:10.573Z,95568.11
2018-02-19T00:48:38.091Z,95565.81
2018-02-19T00:51:05.630Z,95560.78
2018-02-19T00:53:33.185Z,95571.61
2018-02-19T00:56:00.781Z,95570.27
2018-02-19T00:58:28.317Z,95572.05
2018-02-19T01:00:55.880Z,95572.99
2018-02-19T01:03:23.429Z,95577.38
2018-02-19T01:05:50.977Z,95575.54
2018-02-19T01:08:19.142Z,95572.59
2018-02-19T01:10:46.709Z,95573.33
2018-02-19T01:13:14.365Z,95565.58
2018-02-19T01:15:41.893Z,95570.23
2018-02-19T01:18:09.430Z,95575.73
2018-02-19T01:20:36.953Z,95571.67
2018-02-19T01:23:04.470Z,95566.98
2018-02-19T01:25:31.998Z,95569.22
2018-02-19T01:27:59.530Z,95569.28
2018-02-19T01:30:27.096Z,95567.08
2018-02-19T01:32:54.610Z,95569.22
2018-02-19T01:35:22.153Z,95565.61
2018-02-19T01:37:49.674Z,95566.80
2018-02-19T01:40:17.186Z,95560.36
2018-02-19T01:42:44.761Z,95562.66
2018-02-19T01:45:12.319Z,95562.45
2018-02-19T01:47:39.852Z,95569.20
2018-02-19T01:50:15.998Z,95567.30
2018-02-19T01:52:43.516Z,95563.40
2018-02-19T01:55:11.056Z,95563.70
2018-02-19T01:57:38.590Z,95565.55
2018-02-19T02:00:06.300Z,95566.28
2018-02-19T02:02:33.865Z,95564.78
2018-02-19T02:05:01.402Z,95565.58
2018-02-19T02:07:28.941Z,95560.91
2018-02-19T02:09:56.463Z,95570.36
2018-02-19T02:12:24.012Z,95562.27
2018-02-19T02:14:51.526Z,95560.45
2018-02-19T02:17:19.112Z,95564.20
2018-02-19T02:19:46.636Z,95567.38
2018-02-19T02:22:14.163Z,95563.34
2018-02-19T02:24:41.725Z,95566.58
2018-02-19T02:27:10.069Z,95559.38
2018-02-19T02:29:37.848Z,95560.82
2018-02-19T02:32:05.367Z,95560.88
2018-02-19T02:34:32.909Z,95567.16
2018-02-19T02:37:00.745Z,95559.23
2018-02-19T02:39:28.279Z,95566.77
2018-02-19T02:41:55.906Z,95560.27
2018-02-19T02:44:23.453Z,95563.70
2018-02-19T02:46:50.975Z,95568.05
2018-02-19T02:49:18.497Z,95548.83
2018-02-19T02:51:46.015Z,95567.13
2018-02-19T02:54:13.538Z,95561.34
2018-02-19T02:56:41.055Z,95561.98
2018-02-19T02:59:08.570Z,95556.13
2018-02-19T03:01:36.124Z,95557.28
2018-02-19T03:04:03.677Z,95559.98
2018-02-19T03:06:31.199Z,95557.28
2018-02-19T03:08:58.724Z,95560.08
2018-02-19T03:11:26.251Z,95551.80
2018-02-19T03:13:53.804Z,95553.11
2018-02-19T03:16:21.332Z,95544.83
2018-02-19T03:18:48.869Z,95555.75
2018-02-19T03:21:16.398Z,95554.16
2018-02-19T03:23:43.927Z,95548.82
2018-02-19T03:26:11.501Z,95550.50
2018-02-19T03:28:39.033Z,95546.06
2018-02-19T03:31:06.589Z,95544.96
2018-02-19T03:33:34.104Z,95545.17
2018-02-19T03:36:01.620Z,95543.43
2018-02-19T03:38:29.184Z,95541.47
2018-02-19T03:40:56.988Z,95541.13
2018-02-19T03:43:24.560Z,95543.83
2018-02-19T03:45:52.082Z,95541.87
2018-02-19T03:48:19.630Z,95537.64
2018-02-19T03:50:47.149Z,95540.18
2018-02-19T03:53:14.657Z,95543.03
2018-02-19T03:55:42.205Z,95546.22
2018-02-19T03:58:09.760Z,95542.08
2018-02-19T04:00:37.324Z,95541.06
2018-02-19T04:03:04.870Z,95538.68
2018-02-19T04:05:32.412Z,95537.15
2018-02-19T04:08:00.282Z,95536.59
2018-02-19T04:10:27.887Z,95538.68
2018-02-19T04:12:56.346Z,95541.53
2018-02-19T04:15:24.020Z,95537.27
2018-02-19T04:17:51.540Z,95541.84
2018-02-19T04:20:19.087Z,95543.83
2018-02-19T04:22:46.616Z,95540.64
2018-02-19T04:25:14.197Z,95540.09
2018-02-19T04:27:41.718Z,95537.08
2018-02-19T04:30:09.462Z,95537.64
2018-02-19T04:32:37.033Z,95539.97
2018-02-19T04:35:04.559Z,95536.47
2018-02-19T04:37:32.121Z,95535.13
2018-02-19T04:39:59.685Z,95536.38
2018-02-19T04:42:27.224Z,95536.23
2018-02-19T04:45:00.688Z,95543.30
2018-02-19T04:47:28.208Z,95539.47
2018-02-19T04:49:55.763Z,95536.95
2018-02-19T04:52:23.293Z,95555.74
2018-02-19T04:54:51.018Z,95540.70
2018-02-19T04:57:18.565Z,95538.06
2018-02-19T04:59:46.121Z,95546.16
2018-02-19T05:02:13.679Z,95549.41
2018-02-19T05:04:41.204Z,95549.98
2018-02-19T05:07:08.722Z,95554.39
2018-02-19T05:09:36.255Z,95551.55
2018-02-19T05:12:03.872Z,95554.33
2018-02-19T05:14:31.558Z,95553.05
2018-02-19T05:16:59.086Z,95556.81
2018-02-19T05:19:26.625Z,95565.12
2018-02-19T05:21:54.512Z,95561.01
2018-02-19T05:24:22.035Z,95560.13
2018-02-19T05:26:49.571Z,95560.13
2018-02-19T05:29:17.096Z,95562.81
2018-02-19T05:31:46.260Z,95565.98
2018-02-19T05:34:13.793Z,95568.77
2018-02-19T05:36:41.351Z,95567.41
2018-02-19T05:39:08.878Z,95572.59
2018-02-19T05:41:36.449Z,95573.45
2018-02-19T05:44:04.030Z,95571.86
2018-02-19T05:46:31.567Z,95575.33
2018-02-19T05:48:59.104Z,95577.88
2018-02-19T05:51:26.648Z,95585.02
2018-02-19T05:53:54.171Z,95586.83
2018-02-19T05:56:21.719Z,95588.09
2018-02-19T05:58:49.233Z,95589.52
2018-02-19T06:01:16.780Z,95607.27
2018-02-19T06:03:44.321Z,95589.84
2018-02-19T06:06:11.837Z,95597.28
2018-02-19T06:08:40.459Z,95591.28
2018-02-19T06:11:07.988Z,95590.77
2018-02-19T06:13:35.549Z,95602.75
2018-02-19T06:16:03.271Z,95600.45
2018-02-19T06:18:30.900Z,95599.59
2018-02-19T06:20:58.421Z,95602.41
2018-02-19T06:23:26.227Z,95602.66
2018-02-19T06:25:53.803Z,95603.27
2018-02-19T06:28:21.365Z,95605.58
2018-02-19T06:30:49.122Z,95605.58
2018-02-19T06:33:16.657Z,95607.17
2018-02-19T06:35:44.209Z,95602.39
2018-02-19T06:38:11.949Z,95609.29
2018-02-19T06:40:39.470Z,95603.71
2018-02-19T06:43:07.099Z,95610.30
2018-02-19T06:45:34.652Z,95612.30
2018-02-19T06:48:02.182Z,95616.96
2018-02-19T06:50:29.742Z,95596.37
2018-02-19T06:52:57.473Z,95612.67
2018-02-19T06:55:24.993Z,95609.51
2018-02-19T06:57:52.517Z,95614.48
2018-02-19T07:00:20.076Z,95621.20
2018-02-19T07:02:47.686Z,95615.95
2018-02-19T07:05:15.263Z,95612.89
2018-02-19T07:07:42.845Z,95611.05
2018-02-19T07:10:10.374Z,95616.21
2018-02-19T07:12:37.947Z,95616.06
2018-02-19T07:15:05.479Z,95614.83
2018-02-19T07:17:33.277Z,95607.55
2018-02-19T07:20:00.891Z,95609.17
2018-02-19T07:22:28.448Z,95601.89
2018-02-19T07:24:56.098Z,95603.48
2018-02-19T07:27:23.634Z,95604.65
2018-02-19T07:29:51.173Z,95609.80
2018-02-19T07:32:18.718Z,95599.39
2018-02-19T07:34:46.243Z,95605.66
2018-02-19T07:37:13.776Z,95607.50
2018-02-19T07:39:41.320Z,95614.34
2018-02-19T07:42:08.856Z,95604.64
2018-02-19T07:44:36.392Z,95594.24
2018-02-19T07:47:03.918Z,95615.90
2018-02-19T07:49:31.438Z,95614.55
2018-02-19T07:51:58.996Z,95610.90
2018-02-19T07:54:26.534Z,95608.63
2018-02-19T07:56:54.054Z,95610.81
2018-02-19T07:59:21.579Z,95611.15
2018-02-19T08:01:49.128Z,95617.20
2018-02-19T08:04:16.654Z,95615.47
2018-02-19T08:06:44.190Z,95609.98
2018-02-19T08:09:11.724Z,95611.38
2018-02-19T08:11:39.263Z,95601.14
2018-02-19T08:14:06.821Z,95611.63
2018-02-19T08:16:34.348Z,95615.52
2018-02-19T08:19:01.871Z,95617.70
2018-02-19T08:21:29.443Z,95615.95
2018-02-19T08:23:57.011Z,95619.79
2018-02-19T08:26:24.553Z,95612.95
2018-02-19T08:28:52.098Z,95615.38
2018-02-19T08:31:19.634Z,95614.52
2018-02-19T08:33:47.180Z,95606.31
2018-02-19T08:36:14.729Z,95606.25
2018-02-19T08:38:42.272Z,95610.83
2018-02-19T08:41:09.861Z,95623.77
2018-02-19T08:43:37.538Z,95613.17
2018-02-19T08:46:05.065Z,95615.53
2018-02-19T08:48:32.595Z,95617.80
2018-02-19T08:51:00.137Z,95615.47
2018-02-19T08:53:27.680Z,95613.72
2018-02-19T08:55:55.240Z,95613.82
2018-02-19T08:58:22.772Z,95617.53
2018-02-19T09:00:50.348Z,95620.14
2018-02-19T09:03:17.887Z,95613.82
2018-02-19T09:05:45.449Z,95609.49
2018-02-19T09:08:12.990Z,95618.35
2018-02-19T09:10:40.535Z,95612.41
2018-02-19T09:13:08.071Z,95618.66
2018-02-19T09:15:35.607Z,95622.04
2018-02-19T09:18:03.147Z,95609.44
2018-02-19T09:20:30.694Z,95621.40
2018-02-19T09:22:58.212Z,95613.76
2018-02-19T09:25:25.759Z,95623.30
2018-02-19T09:27:53.283Z,95614.45
2018-02-19T09:30:20.850Z,95612.19
2018-02-19T09:32:48.386Z,95616.52
2018-02-19T09:35:16.156Z,95611.55
2018-02-19T09:37:44.197Z,95604.50
2018-02-19T09:40:11.770Z,95610.27
2018-02-19T09:42:39.324Z,95613.05
2018-02-19T09:45:06.849Z,95607.31
2018-02-19T09:47:34.386Z,95603.45
2018-02-19T09:50:01.912Z,95617.59
2018-02-19T09:52:29.443Z,95609.30
2018-02-19T09:54:56.996Z,95600.88
2018-02-19T09:57:24.521Z,95616.95
2018-02-19T09:59:52.048Z,95603.70
2018-02-19T10:02:19.623Z,95604.09
2018-02-19T10:04:47.161Z,95599.25
2018-02-19T10:07:14.702Z,95601.61
2018-02-19T10:09:42.237Z,95593.31
2018-02-19T10:12:09.775Z,95587.37
2018-02-19T10:14:37.329Z,95585.71
2018-02-19T10:17:04.899Z,95584.75
2018-02-19T10:19:32.431Z,95577.33
2018-02-19T10:22:00.025Z,95577.94
2018-02-19T10:24:27.564Z,95573.22
2018-02-19T10:26:55.126Z,95577.59
2018-02-19T10:29:22.649Z,95574.84
2018-02-19T10:31:50.182Z,95573.44
2018-02-19T10:34:17.737Z,95565.18
2018-02-19T10:36:45.254Z,95565.33
2018-02-19T10:39:13.153Z,95568.90
2018-02-19T10:41:40.687Z,95571.24
2018-02-19T10:44:08.243Z,95563.23
2018-02-19T10:46:35.770Z,95569.80
2018-02-19T10:49:03.313Z,95558.95
2018-02-19T10:51:30.853Z,95565.86
2018-02-19T10:53:58.397Z,95567.47
2018-02-19T10:56:25.951Z,95563.41
2018-02-19T10:58:53.707Z,95554.08
2018-02-19T11:01:21.268Z,95543.88
2018-02-19T11:03:48.815Z,95556.98
2018-02-19T11:06:16.352Z,95553.75
2018-02-19T11:08:43.892Z,95545.09
2018-02-19T11:11:11.414Z,95546.74
2018-02-19T11:13:39.113Z,95546.41
2018-02-19T11:16:06.666Z,95549.29
2018-02-19T11:18:34.204Z,95537.61
2018-02-19T11:21:01.734Z,95545.56
2018-02-19T11:23:29.259Z,95536.70
2018-02-19T11:25:56.861Z,95529.45
2018-02-19T11:28:24.398Z,95525.30
2018-02-19T11:30:51.962Z,95530.80
2018-02-19T11:33:19.532Z,95531.33
2018-02-19T11:35:47.082Z,95519.23
2018-02-19T11:38:14.618Z,95526.20
2018-02-19T11:40:42.141Z,95537.00
2018-02-19T11:43:09.700Z,95533.69
2018-02-19T11:45:37.232Z,95518.66
2018-02-19T11:48:04.754Z,95524.45
2018-02-19T11:50:32.319Z,95522.25
2018-02-19T11:52:59.889Z,95510.67
2018-02-19T11:55:27.447Z,95517.52
2018-02-19T11:57:54.974Z,95516.98
2018-02-19T12:00:22.533Z,95511.92
2018-02-19T12:02:50.050Z,95518.45
2018-02-19T12:05:17.612Z,95516.05
2018-02-19T12:07:45.124Z,95521.95
2018-02-19T12:10:12.686Z,95517.48
2018-02-19T12:12:40.261Z,95524.75
2018-02-19T12:15:07.792Z,95519.68
2018-02-19T12:17:35.325Z,95527.06
2018-02-19T12:20:02.854Z,95524.25
2018-02-19T12:22:30.398Z,95508.58
2018-02-19T12:24:57.957Z,95520.29
2018-02-19T12:27:25.479Z,95512.88
2018-02-19T12:29:53.005Z,95515.55
2018-02-19T12:32:20.536Z,95516.14
2018-02-19T12:34:48.065Z,95511.50
2018-02-19T12:37:15.617Z,95501.38
2018-02-19T12:39:43.152Z,95510.13
2018-02-19T12:42:10.726Z,95498.66
2018-02-19T12:44:38.242Z,95513.14
2018-02-19T12:47:06.163Z,95509.38
2018-02-19T12:49:33.732Z,95502.00
2018-02-19T12:52:01.247Z,95499.98
2018-02-19T12:54:28.779Z,95504.91
2018-02-19T12:56:56.302Z,95507.70
2018-02-19T12:59:23.820Z,95501.59
2018-02-19T13:01:51.354Z,95489.66
2018-02-19T13:04:18.867Z,95494.80
2018-02-19T13:06:46.366Z,95497.75
2018-02-19T13:09:13.960Z,95501.83
2018-02-19T13:11:41.498Z,95498.00
2018-02-19T13:14:09.055Z,95491.92
2018-02-19T13:16:36.569Z,95503.28
2018-02-19T13:19:04.091Z,95504.06
2018-02-19T13:21:31.628Z,95500.58
2018-02-19T13:23:59.155Z,95503.55
2018-02-19T13:26:27.454Z,95497.55
2018-02-19T13:28:55.021Z,95503.08
2018-02-19T13:31:22.843Z,95497.81
2018-02-19T13:33:50.393Z,95494.08
2018-02-19T13:36:17.932Z,95490.84
2018-02-19T13:38:45.453Z,95492.92
2018-02-19T13:41:12.973Z,95487.46
2018-02-19T13:43:40.944Z,95477.59
2018-02-19T13:46:08.474Z,95485.01
2018-02-19T13:48:36.020Z,95483.38
2018-02-19T13:51:03.540Z,95479.78
2018-02-19T13:53:31.058Z,95478.88
2018-02-19T13:55:58.718Z,95492.19
2018-02-19T13:58:26.243Z,95476.34
2018-02-19T14:00:53.804Z,95484.43
2018-02-19T14:03:21.327Z,95481.00
2018-02-19T14:05:48.880Z,95493.20
2018-02-19T14:08:16.398Z,95478.52
2018-02-19T14:10:43.940Z,95478.56
2018-02-19T14:13:11.502Z,95474.25
2018-02-19T14:15:39.034Z,95476.13
2018-02-19T14:18:06.589Z,95485.50
2018-02-19T14:20:34.120Z,95482.19
2018-02-19T14:23:01.627Z,95467.97
2018-02-19T14:25:29.141Z,95474.17
2018-02-19T14:27:56.662Z,95476.30
2018-02-19T14:30:24.190Z,95472.62
2018-02-19T14:32:51.717Z,95474.52
2018-02-19T14:35:19.361Z,95468.69
2018-02-19T14:37:46.873Z,95480.59
2018-02-19T14:40:14.401Z,95469.95
2018-02-19T14:42:41.952Z,95477.45
2018-02-19T14:45:09.480Z,95479.69
2018-02-19T14:47:37.009Z,95477.87
2018-02-19T14:50:05.408Z,95477.45
2018-02-19T14:52:32.928Z,95484.06
2018-02-19T14:55:00.454Z,95478.49
2018-02-19T14:57:28.005Z,95467.42
2018-02-19T14:59:55.522Z,95464.89
2018-02-19T15:02:23.089Z,95466.70
2018-02-19T15:04:50.614Z,95469.08
2018-02-19T15:07:18.125Z,95468.69
2018-02-19T15:09:45.680Z,95482.20
2018-02-19T15:12:13.213Z,95467.73
2018-02-19T15:14:40.734Z,95489.66
2018-02-19T15:17:08.251Z,95494.81
2018-02-19T15:19:35.765Z,95463.32
2018-02-19T15:22:03.472Z,95468.41
2018-02-19T15:24:30.987Z,95475.34
2018-02-19T15:26:58.512Z,95478.83
2018-02-19T15:29:26.040Z,95478.94
2018-02-19T15:31:53.605Z,95479.98
2018-02-19T15:34:21.145Z,95464.00
2018-02-19T15:36:48.666Z,95483.80
2018-02-19T15:39:16.200Z,95471.50
2018-02-19T15:41:43.730Z,95484.83
2018-02-19T15:44:11.817Z,95479.98
2018-02-19T15:46:39.401Z,95476.55
2018-02-19T15:49:06.930Z,95480.25
2018-02-19T15:51:34.517Z,95477.12
2018-02-19T15:54:02.041Z,95476.94
2018-02-19T15:56:29.672Z,95488.14
2018-02-19T15:58:57.267Z,95493.42
2018-02-19T16:01:24.826Z,95488.64
2018-02-19T16:03:52.360Z,95478.41
2018-02-19T16:06:19.876Z,95485.23
2018-02-19T16:08:47.394Z,95501.48
2018-02-19T16:11:14.913Z,95484.67
2018-02-19T16:13:42.455Z,95484.42
2018-02-19T16:16:09.994Z,95485.07
2018-02-19T16:18:37.542Z,95483.92
2018-02-19T16:21:05.075Z,95489.70
2018-02-19T16:23:32.660Z,95496.45
2018-02-19T16:26:00.221Z,95494.20
2018-02-19T16:28:27.787Z,95497.66
2018-02-19T16:30:55.459Z,95507.09
2018-02-19T16:33:23.240Z,95496.89
2018-02-19T16:35:50.762Z,95509.73
2018-02-19T16:38:18.283Z,95507.48
2018-02-19T16:40:45.813Z,95507.44
2018-02-19T16:43:13.428Z,95508.84
2018-02-19T16:45:40.973Z,95510.72
2018-02-19T16:48:08.758Z,95508.50
2018-02-19T16:50:36.295Z,95508.72
2018-02-19T16:53:03.866Z,95499.16
2018-02-19T16:55:31.428Z,95510.48
2018-02-19T16:57:58.979Z,95512.09
2018-02-19T17:00:26.554Z,95513.42
2018-02-19T17:02:54.079Z,95509.30
2018-02-19T17:05:21.899Z,95509.31
2018-02-19T17:07:49.470Z,95509.38
2018-02-19T17:10:16.992Z,95513.91
2018-02-19T17:12:44.564Z,95512.63
2018-02-19T17:15:12.134Z,95507.45
2018-02-19T17:17:39.673Z,95511.27
2018-02-19T17:20:07.263Z,95514.03
2018-02-19T17:22:34.791Z,95525.59
2018-02-19T17:25:02.514Z,95515.02
2018-02-19T17:27:30.032Z,95507.38
2018-02-19T17:29:57.619Z,95520.28
2018-02-19T17:32:25.141Z,95513.09
2018-02-19T17:34:54.224Z,95514.33
2018-02-19T17:37:21.811Z,95508.08
2018-02-19T17:39:49.666Z,95518.94
2018-02-19T17:42:17.182Z,95511.63
2018-02-19T17:44:45.931Z,95507.55
2018-02-19T17:47:13.720Z,95512.49
2018-02-19T17:49:41.521Z,95512.24
2018-02-19T17:52:09.561Z,95505.85
2018-02-19T17:54:37.092Z,95509.69
2018-02-19T17:57:04.629Z,95502.24
2018-02-19T17:59:32.206Z,95514.28
2018-02-19T18:01:59.951Z,95501.47
2018-02-19T18:04:27.514Z,95497.85
2018-02-19T18:06:55.073Z,95511.74
2018-02-19T18:09:22.620Z,95498.57
2018-02-19T18:11:50.176Z,95502.58
2018-02-19T18:14:17.745Z,95506.50
2018-02-19T18:16:45.294Z,95504.84
2018-02-19T18:19:12.834Z,95504.34
2018-02-19T18:21:40.373Z,95503.41
2018-02-19T18:24:07.952Z,95503.21
2018-02-19T18:26:36.518Z,95511.08
2018-02-19T18:29:04.053Z,95508.34
2018-02-19T18:31:31.946Z,95505.92
2018-02-19T18:33:59.546Z,95502.16
2018-02-19T18:36:27.102Z,95504.06
2018-02-19T18:38:54.650Z,95508.42
2018-02-19T18:41:22.197Z,95503.06
2018-02-19T18:43:50.028Z,95505.05
2018-02-19T18:46:17.573Z,95501.66
2018-02-19T18:48:45.196Z,95509.17
2018-02-19T18:51:12.779Z,95487.89
2018-02-19T18:53:40.373Z,95499.73
2018-02-19T18:56:07.930Z,95496.43
2018-02-19T18:58:35.514Z,95504.50
2018-02-19T19:01:03.140Z,95494.41
2018-02-19T19:03:30.711Z,95494.41
2018-02-19T19:05:58.247Z,95489.58
2018-02-19T19:08:37.360Z,95496.70
2018-02-19T19:11:04.910Z,95491.94
2018-02-19T19:13:32.448Z,95486.34
2018-02-19T19:15:59.980Z,95486.41
2018-02-19T19:18:27.550Z,95492.27
2018-02-19T19:20:55.121Z,95484.68
2018-02-19T19:23:22.878Z,95493.83
2018-02-19T19:25:50.525Z,95488.23
2018-02-19T19:28:18.089Z,95498.03
2018-02-19T19:30:45.770Z,95482.24
2018-02-19T19:33:13.685Z,95479.92
2018-02-19T19:35:41.332Z,95466.22
2018-02-19T19:38:08.872Z,95485.95
2018-02-19T19:40:36.572Z,95494.41
2018-02-19T19:43:05.278Z,95486.34
2018-02-19T19:45:33.014Z,95492.59
2018-02-19T19:48:00.520Z,95476.61
2018-02-19T19:50:28.033Z,95480.43
2018-02-19T19:52:55.662Z,95480.11
2018-02-19T19:55:23.229Z,95480.98
2018-02-19T19:57:50.755Z,95478.36
2018-02-19T20:00:18.326Z,95470.62
2018-02-19T20:02:45.884Z,95470.41
2018-02-19T20:05:13.414Z,95471.57
2018-02-19T20:07:41.136Z,95462.09
2018-02-19T20:10:08.728Z,95464.92
2018-02-19T20:12:36.273Z,95467.78
2018-02-19T20:15:03.796Z,95466.84
2018-02-19T20:17:31.361Z,95465.17
2018-02-19T20:19:58.882Z,95472.44
2018-02-19T20:22:26.422Z,95469.06
2018-02-19T20:24:53.953Z,95467.39
2018-02-19T20:27:21.505Z,95462.16
2018-02-19T20:29:49.027Z,95450.61
2018-02-19T20:32:16.547Z,95453.41
2018-02-19T20:34:44.086Z,95454.82
2018-02-19T20:37:11.626Z,95443.27
2018-02-19T20:39:39.182Z,95442.00
2018-02-19T20:42:06.768Z,95448.90
2018-02-19T20:44:34.298Z,95445.02
2018-02-19T20:47:01.843Z,95440.25
2018-02-19T20:49:29.419Z,95449.38
2018-02-19T20:51:56.950Z,95450.17
2018-02-19T20:54:24.511Z,95446.28
2018-02-19T20:56:52.034Z,95442.00
2018-02-19T20:59:19.574Z,95447.30
2018-02-19T21:01:47.119Z,95444.54
2018-02-19T21:04:14.709Z,95447.08
2018-02-19T21:06:43.197Z,95443.74
2018-02-19T21:09:10.750Z,95445.02
2018-02-19T21:11:38.319Z,95444.86
2018-02-19T21:14:05.875Z,95448.57
2018-02-19T21:16:33.408Z,95445.34
2018-02-19T21:19:00.967Z,95438.22
2018-02-19T21:21:28.500Z,95437.75
2018-02-19T21:23:56.081Z,95440.03
2018-02-19T21:26:23.638Z,95436.25
2018-02-19T21:28:51.168Z,95437.42
2018-02-19T21:31:18.873Z,95439.31
2018-02-19T21:33:46.613Z,95433.31
2018-02-19T21:36:14.236Z,95433.17
2018-02-19T21:38:41.758Z,95438.22
2018-02-19T21:41:09.262Z,95437.75
2018-02-19T21:43:36.790Z,95453.41
2018-02-19T21:46:04.316Z,95438.05
2018-02-19T21:48:31.952Z,95442.33
2018-02-19T21:50:59.508Z,95440.44
2018-02-19T21:53:27.068Z,95436.00
2018-02-19T21:55:54.818Z,95458.67
2018-02-19T21:58:22.344Z,95443.02
2018-02-19T22:00:50.702Z,95441.83
2018-02-19T22:03:18.228Z,95436.08
2018-02-19T22:05:45.764Z,95433.79
2018-02-19T22:08:13.278Z,95449.27
2018-02-19T22:10:40.788Z,95441.45
2018-02-19T22:13:08.326Z,95440.44
2018-02-19T22:15:35.851Z,95446.36
2018-02-19T22:18:03.385Z,95455.98
2018-02-19T22:20:30.910Z,95447.12
2018-02-19T22:22:58.427Z,95444.77
2018-02-19T22:25:25.981Z,95439.64
2018-02-19T22:27:53.495Z,95430.52
2018-02-19T22:30:21.018Z,95434.08
2018-02-19T22:32:48.588Z,95425.15
2018-02-19T22:35:16.117Z,95435.75
2018-02-19T22:37:43.637Z,95426.02
2018-02-19T22:40:11.144Z,95430.63
2018-02-19T22:42:38.656Z,95425.72
2018-02-19T22:45:06.182Z,95433.06
2018-02-19T22:47:33.706Z,95421.66
2018-02-19T22:50:01.238Z,95433.94
2018-02-19T22:52:28.754Z,95434.41
2018-02-19T22:54:56.290Z,95425.55
2018-02-19T22:57:23.948Z,95419.52
2018-02-19T22:59:51.475Z,95419.38
2018-02-19T23:02:19.070Z,95418.58
2018-02-19T23:04:46.597Z,95427.14
2018-02-19T23:07:14.115Z,95412.66
2018-02-19T23:09:41.640Z,95414.65
2018-02-19T23:12:09.254Z,95412.03
2018-02-19T23:14:36.801Z,95410.77
2018-02-19T23:17:04.327Z,95406.66
2018-02-19T23:19:31.902Z,95417.56
2018-02-19T23:21:59.435Z,95409.34
2018-02-19T23:24:26.951Z,95399.22
2018-02-19T23:26:54.539Z,95420.57
2018-02-19T23:29:22.078Z,95398.50
2018-02-19T23:31:50.252Z,95406.81
2018-02-19T23:34:17.768Z,95403.97
2018-02-19T23:36:45.287Z,95407.83
2018-02-19T23:39:12.801Z,95405.61
2018-02-19T23:41:40.314Z,95395.19
2018-02-19T23:44:07.838Z,95398.20
2018-02-19T23:46:35.420Z,95398.20
2018-02-19T23:49:02.954Z,95400.09
2018-02-19T23:51:30.479Z,95393.52
2018-02-19T23:53:58.423Z,95411.56
2018-02-19T23:56:25.966Z,95391.08
2018-02-19T23:58:53.534Z,95387.53
